Nearby METAR Reports

 

KMTN - Baltimore/Martin, Maryland, USA
Distance from station: SSE 8mi, 13km
Updated: Sat, 04-Jul-2015 10:45am EDT
Light rain, Mist, Overcast
Light rain, Mist, Overcast
 Wind from calm
Wind: Calm
Temperature: 73°F , 23°C
Dew Point: 72°F , 22°C
Humidity: 94%
Barometer: 29.93 inHg , 1013.5 hPa
Summary: Light rain, Mist
Clouds: Overcast
Visibility: 2 miles , 3 km
Cloud details: Overcast 700 ft
2015/07/04 14:45 KMTN 041445Z 00000KT 2SM -RABR OVC007 23/22 A2993
KDMH - Baltimore/Dwntwn, Maryland, USA
Distance from station: SW 12mi, 19km
Updated: Sat, 04-Jul-2015 10:54am EDT

 
Temperature: 72°F , 22°C
Dew Point: 70°F , 21°C
Humidity: 94%
Barometer: 29.92 inHg , 1013.2 hPa
2015/07/04 14:54 KDMH 041454Z AUTO 22/21 A2992 RMK AO1 SLP130 P0008 60009 T02220206 53004
 
KBWI - Balto/Wash Intl, Maryland, USA
Distance from station: SSW 20mi, 33km
Updated: Sat, 04-Jul-2015 10:54am EDT
Light rain, Mist, Overcast
Light rain, Mist, Overcast
 Wind from WSW
Wind: WSW 3 mph , 6 km/h
Temperature: 68°F , 20°C
Dew Point: 64°F , 18°C
Humidity: 88%
Barometer: 29.92 inHg , 1013.2 hPa
Summary: Light rain, Mist
Clouds: Overcast
Visibility: 2 miles , 3 km
Cloud details: Partly cloudy 1200 ft
Mostly cloudy 3100 ft
Overcast 5000 ft
2015/07/04 14:54 KBWI 041454Z 24003KT 2SM -RA BR SCT012 BKN031 OVC050 20/18 A2992 RMK AO2 SLP131 P0019 60022 T02000183 53011
KDMW - Carroll Cnty, Maryland, USA
Distance from station: WNW 30mi, 48km
Updated: Sat, 04-Jul-2015 11:05am EDT
Light rain, Overcast
Light rain, Overcast
 Wind from calm
Wind: Calm
Temperature: 70°F , 21°C
Dew Point: 66°F , 19°C
Humidity: 88%
Barometer: 29.93 inHg , 1013.5 hPa
Summary: Light rain
Clouds: Overcast
Visibility: 7 miles , 11 km
Cloud details: Overcast 3000 ft
2015/07/04 15:05 KDMW 041505Z AUTO 00000KT 7SM -RA OVC030 21/19 A2993 RMK AO2
 
KNAK - Annapolis/Naval, Maryland, USA
Distance from station: S 30mi, 48km
Updated: Sat, 04-Jul-2015 11:02am EDT
Rain, Mist, Overcast
Rain, Mist, Overcast
 Wind from NW
Wind: NW 3 mph , 6 km/h
Temperature: 73°F , 23°C
Dew Point: 70°F , 21°C
Humidity: 89%
Barometer: 29.91 inHg , 1012.9 hPa
Summary: Rain, Mist
Clouds: Overcast
Visibility: 1 3/4 miles , 5 km
Cloud details: Few Clouds 1800 ft
Partly cloudy 3000 ft
Overcast 4200 ft
2015/07/04 15:02 KNAK 041502Z AUTO 32003KT 1 3/4SM RA BR FEW018 SCT030 OVC042 23/21 A2991 RMK AO2 P0002 T02280206
KW29 - Stevensville, Maryland, USA
Distance from station: SSE 31mi, 50km
Updated: Sat, 04-Jul-2015 11:06am EDT
Light rain
Light rain
 Wind from NNW
Wind: NNW 5 mph , 7 km/h
Temperature: 72°F , 22°C
Dew Point: 70°F , 21°C
Humidity: 94%
Barometer: 29.92 inHg , 1013.2 hPa
Summary: Light rain
Visibility: 4 miles , 6 km
2015/07/04 15:06 KW29 041506Z AUTO 33004KT 4SM -RA 22/21 A2992 RMK AO1
 
KCGS - College Park, Maryland, USA
Distance from station: SW 38mi, 61km
Updated: Sat, 04-Jul-2015 11:00am EDT
Overcast
Overcast
 Wind from calm
Wind: Calm
Temperature: 70°F , 21°C
Dew Point: 68°F , 20°C
Humidity: 94%
Barometer: 29.92 inHg , 1013.2 hPa
Clouds: Overcast
Visibility: 5 miles , 8 km
Cloud details: Partly cloudy 1200 ft
Mostly cloudy 3600 ft
Overcast 5000 ft
2015/07/04 15:00 KCGS 041500Z AUTO 00000KT 5SM SCT012 BKN036 OVC050 21/20 A2992 RMK AO1
KGAI - Gaithersburg, Maryland, USA
Distance from station: WSW 40mi, 65km
Updated: Sat, 04-Jul-2015 11:15am EDT
Overcast
Overcast
 Wind from SSE
Wind: SSE 7 mph , 11 km/h
Temperature: 70°F , 21°C
Dew Point: 66°F , 19°C
Humidity: 88%
Barometer: 29.96 inHg , 1014.6 hPa
Clouds: Overcast
Visibility: 9 miles , 14 km
Cloud details: Partly cloudy 600 ft
Mostly cloudy 2200 ft
Overcast 2600 ft
2015/07/04 15:15 KGAI 041515Z AUTO 15006KT 9SM SCT006 BKN022 OVC026 21/19 A2996 RMK AO1
 
KTHV - York, Pennsylvania, USA
Distance from station: NNW 40mi, 65km
Updated: Sat, 04-Jul-2015 11:13am EDT
Heavy rain, Mist, Overcast
Heavy rain, Mist, Overcast
 Wind from ESE
Wind: ESE 7 mph , 11 km/h
Temperature: 68°F , 20°C
Dew Point: 66°F , 19°C
Humidity: 94%
Barometer: 29.94 inHg , 1013.9 hPa
Summary: Heavy rain, Mist
Clouds: Overcast
Visibility: 1 mile , 2 km
Cloud details: Mostly cloudy 500 ft
Mostly cloudy 1300 ft
Overcast 2000 ft
2015/07/04 15:13 KTHV 041513Z AUTO 12006KT 1SM +RA BR BKN005 BKN013 OVC020 20/19 A2994 RMK AO2 CIG 004V009 P0008 T02000194
KFDK - Frederick, Maryland, USA
Distance from station: W 47mi, 75km
Updated: Sat, 04-Jul-2015 10:47am EDT
Light rain, Mist, Overcast
Light rain, Mist, Overcast
 Wind from NNE
Wind: NNE 3 mph , 6 km/h
Temperature: 70°F , 21°C
Dew Point: 70°F , 21°C
Humidity: 100%
Barometer: 29.95 inHg , 1014.2 hPa
Summary: Light rain, Mist
Clouds: Overcast
Visibility: 2 1/2 miles , 2 km
Cloud details: Partly cloudy 500 ft
Mostly cloudy 900 ft
Overcast 1700 ft
2015/07/04 14:47 KFDK 041447Z 03003KT 2 1/2SM -RABR SCT005 BKN009 OVC017 21/21 A2995
 
KESN - Easton/Newnam, Maryland, USA
Distance from station: SSE 48mi, 78km
Updated: Sat, 04-Jul-2015 10:50am EDT
Overcast
Overcast
 Wind from ESE
Wind: ESE 3 mph , 6 km/h
Temperature: 81°F , 27°C
Heat Index: 85°F , 29°C
Dew Point: 72°F , 22°C
Humidity: 74%
Barometer: 29.94 inHg , 1013.9 hPa
Clouds: Overcast
Visibility: 10 miles , 16 km
Cloud details: Mostly cloudy 2000 ft
Overcast 3300 ft
2015/07/04 14:50 KESN 041450Z 12003KT 10SM BKN020 OVC033 27/22 A2994
KDCA - Washington/Natl, Washington D.c., USA
Distance from station: SW 49mi, 79km
Updated: Sat, 04-Jul-2015 11:07am EDT
Mostly cloudy
Mostly cloudy
 Wind from NNE
Wind: NNE 3 mph , 6 km/h
Temperature: 73°F , 23°C
Dew Point: 70°F , 21°C
Humidity: 89%
Barometer: 29.92 inHg , 1013.2 hPa
Clouds: Mostly cloudy
Visibility: 7 miles , 11 km
Cloud details: Partly cloudy 1800 ft
Mostly cloudy 3100 ft
Mostly cloudy 8000 ft
2015/07/04 15:07 KDCA 041507Z 02003KT 7SM SCT018 BKN031 BKN080 23/21 A2992 RMK AO2
 
KLNS - Lancaster, Pennsylvania, USA
Distance from station: N 49mi, 79km
Updated: Sat, 04-Jul-2015 10:53am EDT
Mist, Overcast
Mist, Overcast
 Wind from NE
Wind: NE 12 mph , 19 km/h
Temperature: 70°F , 21°C
Dew Point: 64°F , 18°C
Humidity: 83%
Barometer: 29.94 inHg , 1013.9 hPa
Summary: Mist
Clouds: Overcast
Visibility: 6 miles , 10 km
Cloud details: Few Clouds 900 ft
Mostly cloudy 6000 ft
Overcast 10000 ft
2015/07/04 14:53 KLNS 041453Z 04010KT 6SM BR FEW009 BKN060 OVC100 21/18 A2994 RMK AO2 RAB28E40 SLP135 P0000 60008 T02060183 51006
KILG - Wilmington, Delaware, USA
Distance from station: ENE 50mi, 81km
Updated: Sat, 04-Jul-2015 10:51am EDT
Overcast
Overcast
 Wind from NE
Wind: NE 9 mph , 15 km/h
Temperature: 75°F , 24°C
Dew Point: 64°F , 18°C
Humidity: 69%
Barometer: 29.92 inHg , 1013.2 hPa
Clouds: Overcast
Visibility: 10 miles , 16 km
Cloud details: Mostly cloudy 7500 ft
Overcast 9500 ft
2015/07/04 14:51 KILG 041451Z 05008KT 10SM BKN075 OVC095 24/18 A2992 RMK AO2 SLP133 T02390183 51005